sensor_id;sensor_type;location;lat;lon;timestamp;temperature;humidity
12291;DHT22;6208;48.956;9.076;2023-04-24T00:00:58;12.90;99.90
12291;DHT22;6208;48.956;9.076;2023-04-24T00:03:45;13.00;99.90
12291;DHT22;6208;48.956;9.076;2023-04-24T00:06:29;13.20;99.90
12291;DHT22;6208;48.956;9.076;2023-04-24T00:09:16;12.90;99.90
12291;DHT22;6208;48.956;9.076;2023-04-24T00:12:01;12.90;99.90
12291;DHT22;6208;48.956;9.076;2023-04-24T00:14:47;12.90;99.90
12291;DHT22;6208;48.956;9.076;2023-04-24T00:17:31;12.90;99.90
12291;DHT22;6208;48.956;9.076;2023-04-24T00:20:15;12.90;99.90
12291;DHT22;6208;48.956;9.076;2023-04-24T00:22:59;13.00;99.90
12291;DHT22;6208;48.956;9.076;2023-04-24T00:25:43;13.00;99.90
12291;DHT22;6208;48.956;9.076;2023-04-24T00:28:27;13.10;99.90
12291;DHT22;6208;48.956;9.076;2023-04-24T00:31:12;13.10;99.90
12291;DHT22;6208;48.956;9.076;2023-04-24T00:33:56;13.20;99.90
12291;DHT22;6208;48.956;9.076;2023-04-24T00:36:40;13.10;99.90
12291;DHT22;6208;48.956;9.076;2023-04-24T00:39:24;13.00;99.90
12291;DHT22;6208;48.956;9.076;2023-04-24T00:42:08;12.80;99.90
12291;DHT22;6208;48.956;9.076;2023-04-24T00:44:53;12.80;99.90
12291;DHT22;6208;48.956;9.076;2023-04-24T00:47:37;12.80;99.90
12291;DHT22;6208;48.956;9.076;2023-04-24T00:50:23;12.80;99.90
12291;DHT22;6208;48.956;9.076;2023-04-24T00:53:08;12.80;99.90
12291;DHT22;6208;48.956;9.076;2023-04-24T00:55:52;12.80;99.90
12291;DHT22;6208;48.956;9.076;2023-04-24T00:58:36;12.70;99.90
12291;DHT22;6208;48.956;9.076;2023-04-24T01:01:21;12.70;99.90
12291;DHT22;6208;48.956;9.076;2023-04-24T01:04:06;12.90;99.90
12291;DHT22;6208;48.956;9.076;2023-04-24T01:06:52;12.80;99.90
12291;DHT22;6208;48.956;9.076;2023-04-24T01:09:44;12.90;99.90
12291;DHT22;6208;48.956;9.076;2023-04-24T01:12:31;12.70;99.90
12291;DHT22;6208;48.956;9.076;2023-04-24T01:15:15;12.90;99.90
12291;DHT22;6208;48.956;9.076;2023-04-24T01:17:59;12.90;99.90
12291;DHT22;6208;48.956;9.076;2023-04-24T01:20:45;12.80;99.90
12291;DHT22;6208;48.956;9.076;2023-04-24T01:23:30;12.60;99.90
12291;DHT22;6208;48.956;9.076;2023-04-24T01:26:18;12.70;99.90
12291;DHT22;6208;48.956;9.076;2023-04-24T01:29:03;12.60;99.90
12291;DHT22;6208;48.956;9.076;2023-04-24T01:31:47;12.60;99.90
12291;DHT22;6208;48.956;9.076;2023-04-24T01:34:32;12.60;99.90
12291;DHT22;6208;48.956;9.076;2023-04-24T01:37:16;12.50;99.90
12291;DHT22;6208;48.956;9.076;2023-04-24T01:40:01;12.50;99.90
12291;DHT22;6208;48.956;9.076;2023-04-24T01:42:45;12.70;99.90
12291;DHT22;6208;48.956;9.076;2023-04-24T01:45:29;12.80;99.90
12291;DHT22;6208;48.956;9.076;2023-04-24T01:48:14;12.70;99.90
12291;DHT22;6208;48.956;9.076;2023-04-24T01:50:59;12.60;99.90
12291;DHT22;6208;48.956;9.076;2023-04-24T01:53:43;12.70;99.90
12291;DHT22;6208;48.956;9.076;2023-04-24T01:56:33;12.70;99.90
12291;DHT22;6208;48.956;9.076;2023-04-24T01:59:20;13.00;99.90
12291;DHT22;6208;48.956;9.076;2023-04-24T02:02:05;12.90;99.90
12291;DHT22;6208;48.956;9.076;2023-04-24T02:04:50;12.80;99.90
12291;DHT22;6208;48.956;9.076;2023-04-24T02:07:34;12.80;99.90
12291;DHT22;6208;48.956;9.076;2023-04-24T02:10:18;12.70;99.90
12291;DHT22;6208;48.956;9.076;2023-04-24T02:15:48;12.60;99.90
12291;DHT22;6208;48.956;9.076;2023-04-24T02:18:32;12.70;99.90
12291;DHT22;6208;48.956;9.076;2023-04-24T02:21:17;12.50;99.90
12291;DHT22;6208;48.956;9.076;2023-04-24T02:24:01;12.90;99.90
12291;DHT22;6208;48.956;9.076;2023-04-24T02:26:45;12.80;99.90
12291;DHT22;6208;48.956;9.076;2023-04-24T02:29:29;12.80;99.90
12291;DHT22;6208;48.956;9.076;2023-04-24T02:32:14;12.80;99.90
12291;DHT22;6208;48.956;9.076;2023-04-24T02:34:59;12.70;99.90
12291;DHT22;6208;48.956;9.076;2023-04-24T02:37:43;12.70;99.90
12291;DHT22;6208;48.956;9.076;2023-04-24T02:40:27;13.00;99.90
12291;DHT22;6208;48.956;9.076;2023-04-24T02:43:11;12.60;99.90
12291;DHT22;6208;48.956;9.076;2023-04-24T02:45:58;12.70;99.90
12291;DHT22;6208;48.956;9.076;2023-04-24T02:48:43;12.80;99.90
12291;DHT22;6208;48.956;9.076;2023-04-24T02:51:27;12.80;99.90
12291;DHT22;6208;48.956;9.076;2023-04-24T02:54:11;12.60;99.90
12291;DHT22;6208;48.956;9.076;2023-04-24T02:59:41;12.60;99.90
12291;DHT22;6208;48.956;9.076;2023-04-24T03:02:25;12.60;99.90
12291;DHT22;6208;48.956;9.076;2023-04-24T03:05:09;12.80;99.90
12291;DHT22;6208;48.956;9.076;2023-04-24T03:07:55;12.60;99.90
12291;DHT22;6208;48.956;9.076;2023-04-24T03:10:39;12.60;99.90
12291;DHT22;6208;48.956;9.076;2023-04-24T03:13:23;12.40;99.90
12291;DHT22;6208;48.956;9.076;2023-04-24T03:16:08;12.30;99.90
12291;DHT22;6208;48.956;9.076;2023-04-24T03:18:52;12.30;99.90
12291;DHT22;6208;48.956;9.076;2023-04-24T03:21:36;12.40;99.90
12291;DHT22;6208;48.956;9.076;2023-04-24T03:24:24;12.40;99.90
12291;DHT22;6208;48.956;9.076;2023-04-24T03:27:08;12.40;99.90
12291;DHT22;6208;48.956;9.076;2023-04-24T03:29:53;12.60;99.90
12291;DHT22;6208;48.956;9.076;2023-04-24T03:32:39;12.30;99.90
12291;DHT22;6208;48.956;9.076;2023-04-24T03:35:23;12.10;99.90
12291;DHT22;6208;48.956;9.076;2023-04-24T03:38:07;12.00;99.90
12291;DHT22;6208;48.956;9.076;2023-04-24T03:40:51;12.00;99.90
12291;DHT22;6208;48.956;9.076;2023-04-24T03:43:35;12.00;99.90
12291;DHT22;6208;48.956;9.076;2023-04-24T03:46:20;12.30;99.90
12291;DHT22;6208;48.956;9.076;2023-04-24T03:49:04;12.20;99.90
12291;DHT22;6208;48.956;9.076;2023-04-24T03:51:48;12.10;99.90
12291;DHT22;6208;48.956;9.076;2023-04-24T03:54:36;12.20;99.90
12291;DHT22;6208;48.956;9.076;2023-04-24T03:57:20;12.50;99.90
12291;DHT22;6208;48.956;9.076;2023-04-24T04:00:04;12.30;99.90
12291;DHT22;6208;48.956;9.076;2023-04-24T04:02:49;12.20;99.90
12291;DHT22;6208;48.956;9.076;2023-04-24T04:05:33;12.20;99.90
12291;DHT22;6208;48.956;9.076;2023-04-24T04:08:20;11.90;99.90
12291;DHT22;6208;48.956;9.076;2023-04-24T04:11:04;11.60;99.90
12291;DHT22;6208;48.956;9.076;2023-04-24T04:13:48;11.80;99.90
12291;DHT22;6208;48.956;9.076;2023-04-24T04:16:33;11.70;99.90
12291;DHT22;6208;48.956;9.076;2023-04-24T04:19:17;11.40;99.90
12291;DHT22;6208;48.956;9.076;2023-04-24T04:22:01;11.50;99.90
12291;DHT22;6208;48.956;9.076;2023-04-24T04:24:45;10.90;99.90
12291;DHT22;6208;48.956;9.076;2023-04-24T04:27:30;10.80;99.90
12291;DHT22;6208;48.956;9.076;2023-04-24T04:30:16;10.90;99.90
12291;DHT22;6208;48.956;9.076;2023-04-24T04:33:00;10.90;99.90
12291;DHT22;6208;48.956;9.076;2023-04-24T04:35:45;11.00;99.90
12291;DHT22;6208;48.956;9.076;2023-04-24T04:38:32;10.80;99.90
12291;DHT22;6208;48.956;9.076;2023-04-24T04:41:17;10.70;99.90
12291;DHT22;6208;48.956;9.076;2023-04-24T04:44:02;10.60;99.90
12291;DHT22;6208;48.956;9.076;2023-04-24T04:46:49;10.90;99.90
12291;DHT22;6208;48.956;9.076;2023-04-24T04:49:34;10.90;99.90
12291;DHT22;6208;48.956;9.076;2023-04-24T04:52:18;10.80;99.90
12291;DHT22;6208;48.956;9.076;2023-04-24T04:55:03;10.80;99.90
12291;DHT22;6208;48.956;9.076;2023-04-24T04:57:47;10.80;99.90
12291;DHT22;6208;48.956;9.076;2023-04-24T05:00:31;10.80;99.90
12291;DHT22;6208;48.956;9.076;2023-04-24T05:03:19;10.80;99.90
12291;DHT22;6208;48.956;9.076;2023-04-24T05:06:03;10.80;99.90
12291;DHT22;6208;48.956;9.076;2023-04-24T05:08:48;10.80;99.90
12291;DHT22;6208;48.956;9.076;2023-04-24T05:11:35;11.00;99.90
12291;DHT22;6208;48.956;9.076;2023-04-24T05:14:19;10.70;99.90
12291;DHT22;6208;48.956;9.076;2023-04-24T05:17:04;10.70;99.90
12291;DHT22;6208;48.956;9.076;2023-04-24T05:19:48;10.70;99.90
12291;DHT22;6208;48.956;9.076;2023-04-24T05:22:33;10.70;99.90
12291;DHT22;6208;48.956;9.076;2023-04-24T05:25:17;10.70;99.90
12291;DHT22;6208;48.956;9.076;2023-04-24T05:28:01;10.80;99.90
12291;DHT22;6208;48.956;9.076;2023-04-24T05:30:46;10.90;99.90
12291;DHT22;6208;48.956;9.076;2023-04-24T05:33:30;11.00;99.90
12291;DHT22;6208;48.956;9.076;2023-04-24T05:36:14;10.80;99.90
12291;DHT22;6208;48.956;9.076;2023-04-24T05:38:59;10.70;99.90
12291;DHT22;6208;48.956;9.076;2023-04-24T05:41:43;10.70;99.90
12291;DHT22;6208;48.956;9.076;2023-04-24T05:44:27;10.70;99.90
12291;DHT22;6208;48.956;9.076;2023-04-24T05:47:11;10.50;99.90
12291;DHT22;6208;48.956;9.076;2023-04-24T05:49:55;10.60;99.90
12291;DHT22;6208;48.956;9.076;2023-04-24T05:52:40;10.60;99.90
12291;DHT22;6208;48.956;9.076;2023-04-24T05:55:25;10.70;99.90
12291;DHT22;6208;48.956;9.076;2023-04-24T05:58:09;10.70;99.90
12291;DHT22;6208;48.956;9.076;2023-04-24T06:00:54;10.90;99.90
12291;DHT22;6208;48.956;9.076;2023-04-24T06:03:39;10.90;99.90
12291;DHT22;6208;48.956;9.076;2023-04-24T06:06:26;10.90;99.90
12291;DHT22;6208;48.956;9.076;2023-04-24T06:09:10;10.90;99.90
12291;DHT22;6208;48.956;9.076;2023-04-24T06:11:56;11.10;99.90
12291;DHT22;6208;48.956;9.076;2023-04-24T06:14:40;11.10;99.90
12291;DHT22;6208;48.956;9.076;2023-04-24T06:17:24;11.10;99.90
12291;DHT22;6208;48.956;9.076;2023-04-24T06:20:09;11.20;99.90
12291;DHT22;6208;48.956;9.076;2023-04-24T06:22:55;11.40;99.90
12291;DHT22;6208;48.956;9.076;2023-04-24T06:25:39;11.40;99.90
12291;DHT22;6208;48.956;9.076;2023-04-24T06:28:23;11.40;99.90
12291;DHT22;6208;48.956;9.076;2023-04-24T06:31:07;11.40;99.90
12291;DHT22;6208;48.956;9.076;2023-04-24T06:33:51;11.40;99.90
12291;DHT22;6208;48.956;9.076;2023-04-24T06:36:35;11.40;99.90
12291;DHT22;6208;48.956;9.076;2023-04-24T06:39:19;11.50;99.90
12291;DHT22;6208;48.956;9.076;2023-04-24T06:42:04;11.50;99.90
12291;DHT22;6208;48.956;9.076;2023-04-24T06:44:48;11.40;99.90
12291;DHT22;6208;48.956;9.076;2023-04-24T06:47:33;11.50;99.90
12291;DHT22;6208;48.956;9.076;2023-04-24T06:50:17;11.70;99.90
12291;DHT22;6208;48.956;9.076;2023-04-24T06:53:01;11.70;99.90
12291;DHT22;6208;48.956;9.076;2023-04-24T06:55:45;11.90;99.90
12291;DHT22;6208;48.956;9.076;2023-04-24T06:58:30;12.10;99.90
12291;DHT22;6208;48.956;9.076;2023-04-24T07:01:14;12.30;99.90
12291;DHT22;6208;48.956;9.076;2023-04-24T07:03:59;12.00;99.90
12291;DHT22;6208;48.956;9.076;2023-04-24T07:06:47;12.10;99.90
12291;DHT22;6208;48.956;9.076;2023-04-24T07:09:31;12.20;99.90
12291;DHT22;6208;48.956;9.076;2023-04-24T07:12:16;12.40;99.90
12291;DHT22;6208;48.956;9.076;2023-04-24T07:15:00;12.10;99.90
12291;DHT22;6208;48.956;9.076;2023-04-24T07:17:44;12.10;99.90
12291;DHT22;6208;48.956;9.076;2023-04-24T07:20:28;12.20;99.90
12291;DHT22;6208;48.956;9.076;2023-04-24T07:23:13;12.20;99.90
12291;DHT22;6208;48.956;9.076;2023-04-24T07:25:57;12.30;99.90
12291;DHT22;6208;48.956;9.076;2023-04-24T07:28:41;12.20;99.90
12291;DHT22;6208;48.956;9.076;2023-04-24T07:31:26;12.30;99.90
12291;DHT22;6208;48.956;9.076;2023-04-24T07:34:10;12.20;99.30
12291;DHT22;6208;48.956;9.076;2023-04-24T07:36:54;12.20;98.80
12291;DHT22;6208;48.956;9.076;2023-04-24T07:39:38;12.20;98.60
12291;DHT22;6208;48.956;9.076;2023-04-24T07:42:22;12.20;98.70
12291;DHT22;6208;48.956;9.076;2023-04-24T07:45:07;12.20;98.40
12291;DHT22;6208;48.956;9.076;2023-04-24T07:47:51;12.00;99.90
12291;DHT22;6208;48.956;9.076;2023-04-24T07:50:35;12.10;98.10
12291;DHT22;6208;48.956;9.076;2023-04-24T07:53:20;12.00;98.00
12291;DHT22;6208;48.956;9.076;2023-04-24T07:56:05;11.90;96.90
12291;DHT22;6208;48.956;9.076;2023-04-24T07:58:49;11.90;97.10
12291;DHT22;6208;48.956;9.076;2023-04-24T08:01:34;12.00;96.50
12291;DHT22;6208;48.956;9.076;2023-04-24T08:04:18;12.00;97.20
12291;DHT22;6208;48.956;9.076;2023-04-24T08:07:02;11.90;96.60
12291;DHT22;6208;48.956;9.076;2023-04-24T08:09:46;11.80;96.50
12291;DHT22;6208;48.956;9.076;2023-04-24T08:12:30;11.80;96.70
12291;DHT22;6208;48.956;9.076;2023-04-24T08:15:14;11.90;96.20
12291;DHT22;6208;48.956;9.076;2023-04-24T08:17:58;11.90;96.60
12291;DHT22;6208;48.956;9.076;2023-04-24T08:20:42;12.00;95.20
12291;DHT22;6208;48.956;9.076;2023-04-24T08:23:27;12.00;93.50
12291;DHT22;6208;48.956;9.076;2023-04-24T08:26:12;12.10;94.00
12291;DHT22;6208;48.956;9.076;2023-04-24T08:28:56;12.20;94.50
12291;DHT22;6208;48.956;9.076;2023-04-24T08:31:40;12.30;98.70
12291;DHT22;6208;48.956;9.076;2023-04-24T08:34:24;12.40;95.30
12291;DHT22;6208;48.956;9.076;2023-04-24T08:37:08;12.50;94.20
12291;DHT22;6208;48.956;9.076;2023-04-24T08:39:52;12.30;93.70
12291;DHT22;6208;48.956;9.076;2023-04-24T08:42:37;12.60;93.80
12291;DHT22;6208;48.956;9.076;2023-04-24T08:45:21;12.60;94.90
12291;DHT22;6208;48.956;9.076;2023-04-24T08:48:07;12.60;93.60
12291;DHT22;6208;48.956;9.076;2023-04-24T08:50:51;12.60;93.30
12291;DHT22;6208;48.956;9.076;2023-04-24T08:53:36;12.80;95.00
12291;DHT22;6208;48.956;9.076;2023-04-24T08:56:21;12.60;95.30
12291;DHT22;6208;48.956;9.076;2023-04-24T08:59:08;12.50;94.60
12291;DHT22;6208;48.956;9.076;2023-04-24T09:01:53;12.40;94.90
12291;DHT22;6208;48.956;9.076;2023-04-24T09:04:38;12.50;94.50
12291;DHT22;6208;48.956;9.076;2023-04-24T09:07:24;12.60;95.50
12291;DHT22;6208;48.956;9.076;2023-04-24T09:10:11;12.60;94.50
12291;DHT22;6208;48.956;9.076;2023-04-24T09:12:56;12.60;95.60
12291;DHT22;6208;48.956;9.076;2023-04-24T09:15:42;12.60;94.30
12291;DHT22;6208;48.956;9.076;2023-04-24T09:18:27;12.50;94.40
12291;DHT22;6208;48.956;9.076;2023-04-24T09:21:11;12.80;94.50
12291;DHT22;6208;48.956;9.076;2023-04-24T09:24:00;13.10;93.50
12291;DHT22;6208;48.956;9.076;2023-04-24T09:26:46;13.40;92.90
12291;DHT22;6208;48.956;9.076;2023-04-24T09:29:30;13.60;92.50
12291;DHT22;6208;48.956;9.076;2023-04-24T09:32:23;13.30;93.30
12291;DHT22;6208;48.956;9.076;2023-04-24T09:35:10;13.10;93.40
12291;DHT22;6208;48.956;9.076;2023-04-24T09:37:57;12.80;94.40
12291;DHT22;6208;48.956;9.076;2023-04-24T09:40:41;12.80;93.90
12291;DHT22;6208;48.956;9.076;2023-04-24T09:43:26;12.60;93.60
12291;DHT22;6208;48.956;9.076;2023-04-24T09:46:11;12.70;94.10
12291;DHT22;6208;48.956;9.076;2023-04-24T09:48:55;12.60;93.90
12291;DHT22;6208;48.956;9.076;2023-04-24T09:51:39;12.60;93.50
12291;DHT22;6208;48.956;9.076;2023-04-24T09:54:24;12.60;93.40
12291;DHT22;6208;48.956;9.076;2023-04-24T09:57:09;13.00;95.60
12291;DHT22;6208;48.956;9.076;2023-04-24T09:59:53;13.00;92.00
12291;DHT22;6208;48.956;9.076;2023-04-24T10:02:37;13.20;91.40
12291;DHT22;6208;48.956;9.076;2023-04-24T10:05:40;13.60;89.70
12291;DHT22;6208;48.956;9.076;2023-04-24T10:08:25;13.60;88.00
12291;DHT22;6208;48.956;9.076;2023-04-24T10:11:10;13.40;89.30
12291;DHT22;6208;48.956;9.076;2023-04-24T10:13:55;13.00;92.30
12291;DHT22;6208;48.956;9.076;2023-04-24T10:16:41;13.00;88.10
12291;DHT22;6208;48.956;9.076;2023-04-24T10:19:26;13.00;88.40
12291;DHT22;6208;48.956;9.076;2023-04-24T10:22:11;12.80;89.10
12291;DHT22;6208;48.956;9.076;2023-04-24T10:24:56;12.90;90.00
12291;DHT22;6208;48.956;9.076;2023-04-24T10:27:41;12.90;90.00
12291;DHT22;6208;48.956;9.076;2023-04-24T10:30:30;12.70;90.00
12291;DHT22;6208;48.956;9.076;2023-04-24T10:33:19;12.40;90.90
12291;DHT22;6208;48.956;9.076;2023-04-24T10:36:03;12.20;92.50
12291;DHT22;6208;48.956;9.076;2023-04-24T10:38:48;12.00;92.30
12291;DHT22;6208;48.956;9.076;2023-04-24T10:41:37;12.10;92.60
12291;DHT22;6208;48.956;9.076;2023-04-24T10:44:22;12.20;96.30
12291;DHT22;6208;48.956;9.076;2023-04-24T10:47:13;12.10;92.30
12291;DHT22;6208;48.956;9.076;2023-04-24T10:49:59;12.80;93.30
12291;DHT22;6208;48.956;9.076;2023-04-24T10:52:47;12.30;92.90
12291;DHT22;6208;48.956;9.076;2023-04-24T10:55:45;12.50;93.10
12291;DHT22;6208;48.956;9.076;2023-04-24T10:58:41;12.80;92.60
12291;DHT22;6208;48.956;9.076;2023-04-24T11:01:32;13.00;92.10
12291;DHT22;6208;48.956;9.076;2023-04-24T11:04:29;13.10;92.00
12291;DHT22;6208;48.956;9.076;2023-04-24T11:07:13;13.00;92.00
12291;DHT22;6208;48.956;9.076;2023-04-24T11:09:58;12.80;92.00
12291;DHT22;6208;48.956;9.076;2023-04-24T11:12:44;12.90;93.10
12291;DHT22;6208;48.956;9.076;2023-04-24T11:15:28;13.20;91.20
12291;DHT22;6208;48.956;9.076;2023-04-24T11:18:14;13.50;92.60
12291;DHT22;6208;48.956;9.076;2023-04-24T11:20:59;13.20;91.60
12291;DHT22;6208;48.956;9.076;2023-04-24T11:23:53;13.70;96.40
12291;DHT22;6208;48.956;9.076;2023-04-24T11:26:38;13.90;89.90
12291;DHT22;6208;48.956;9.076;2023-04-24T11:29:24;13.50;90.10
12291;DHT22;6208;48.956;9.076;2023-04-24T11:32:28;13.30;90.60
12291;DHT22;6208;48.956;9.076;2023-04-24T11:35:18;13.50;90.60
12291;DHT22;6208;48.956;9.076;2023-04-24T11:38:03;13.70;90.70
12291;DHT22;6208;48.956;9.076;2023-04-24T11:40:49;13.70;88.10
12291;DHT22;6208;48.956;9.076;2023-04-24T11:43:33;13.70;87.70
12291;DHT22;6208;48.956;9.076;2023-04-24T11:46:20;14.00;88.40
12291;DHT22;6208;48.956;9.076;2023-04-24T11:49:05;14.10;87.70
12291;DHT22;6208;48.956;9.076;2023-04-24T11:51:55;13.70;92.70
12291;DHT22;6208;48.956;9.076;2023-04-24T11:54:49;13.40;87.40
12291;DHT22;6208;48.956;9.076;2023-04-24T11:57:36;13.20;88.40
12291;DHT22;6208;48.956;9.076;2023-04-24T12:00:23;13.30;89.30
12291;DHT22;6208;48.956;9.076;2023-04-24T12:03:09;13.20;90.00
12291;DHT22;6208;48.956;9.076;2023-04-24T12:06:07;13.10;90.30
12291;DHT22;6208;48.956;9.076;2023-04-24T12:08:52;13.20;91.10
12291;DHT22;6208;48.956;9.076;2023-04-24T12:11:55;13.40;91.00
12291;DHT22;6208;48.956;9.076;2023-04-24T12:17:32;13.40;91.30
12291;DHT22;6208;48.956;9.076;2023-04-24T12:20:16;13.30;90.50
12291;DHT22;6208;48.956;9.076;2023-04-24T12:23:01;13.10;91.80
12291;DHT22;6208;48.956;9.076;2023-04-24T12:25:45;12.90;91.80
12291;DHT22;6208;48.956;9.076;2023-04-24T12:28:35;12.60;92.60
12291;DHT22;6208;48.956;9.076;2023-04-24T12:31:21;12.50;94.90
12291;DHT22;6208;48.956;9.076;2023-04-24T12:34:20;12.40;96.70
12291;DHT22;6208;48.956;9.076;2023-04-24T12:37:11;12.10;97.10
12291;DHT22;6208;48.956;9.076;2023-04-24T12:40:03;12.20;97.20
12291;DHT22;6208;48.956;9.076;2023-04-24T12:42:51;12.30;98.30
12291;DHT22;6208;48.956;9.076;2023-04-24T12:45:35;12.40;98.30
12291;DHT22;6208;48.956;9.076;2023-04-24T12:48:19;12.50;99.90
12291;DHT22;6208;48.956;9.076;2023-04-24T12:51:04;12.40;98.00
12291;DHT22;6208;48.956;9.076;2023-04-24T12:53:49;12.30;98.60
12291;DHT22;6208;48.956;9.076;2023-04-24T12:56:33;12.30;98.70
12291;DHT22;6208;48.956;9.076;2023-04-24T12:59:17;12.20;98.20
12291;DHT22;6208;48.956;9.076;2023-04-24T13:02:01;12.50;97.80
12291;DHT22;6208;48.956;9.076;2023-04-24T13:04:46;12.40;97.10
12291;DHT22;6208;48.956;9.076;2023-04-24T13:07:31;12.40;96.30
12291;DHT22;6208;48.956;9.076;2023-04-24T13:10:15;12.30;96.20
12291;DHT22;6208;48.956;9.076;2023-04-24T13:13:00;12.50;97.10
12291;DHT22;6208;48.956;9.076;2023-04-24T13:15:44;13.00;94.90
12291;DHT22;6208;48.956;9.076;2023-04-24T13:18:28;12.80;94.50
12291;DHT22;6208;48.956;9.076;2023-04-24T13:21:12;12.70;93.90
12291;DHT22;6208;48.956;9.076;2023-04-24T13:23:56;12.50;93.70
12291;DHT22;6208;48.956;9.076;2023-04-24T13:26:40;12.60;93.70
12291;DHT22;6208;48.956;9.076;2023-04-24T13:29:24;12.60;93.40
12291;DHT22;6208;48.956;9.076;2023-04-24T13:32:09;12.90;93.70
12291;DHT22;6208;48.956;9.076;2023-04-24T13:34:53;13.30;92.30
12291;DHT22;6208;48.956;9.076;2023-04-24T13:37:37;13.70;93.40
12291;DHT22;6208;48.956;9.076;2023-04-24T13:40:22;13.90;91.40
12291;DHT22;6208;48.956;9.076;2023-04-24T13:43:07;13.70;90.70
12291;DHT22;6208;48.956;9.076;2023-04-24T13:45:51;13.50;91.00
12291;DHT22;6208;48.956;9.076;2023-04-24T13:48:35;13.60;92.00
12291;DHT22;6208;48.956;9.076;2023-04-24T13:51:19;13.40;91.30
12291;DHT22;6208;48.956;9.076;2023-04-24T13:54:04;13.60;91.90
12291;DHT22;6208;48.956;9.076;2023-04-24T13:56:49;13.40;90.40
12291;DHT22;6208;48.956;9.076;2023-04-24T13:59:33;13.60;91.20
12291;DHT22;6208;48.956;9.076;2023-04-24T14:02:17;13.90;91.30
12291;DHT22;6208;48.956;9.076;2023-04-24T14:05:02;14.30;90.40
12291;DHT22;6208;48.956;9.076;2023-04-24T14:07:47;14.40;91.00
12291;DHT22;6208;48.956;9.076;2023-04-24T14:10:31;16.40;89.80
12291;DHT22;6208;48.956;9.076;2023-04-24T14:13:15;13.90;89.90
12291;DHT22;6208;48.956;9.076;2023-04-24T14:16:00;13.80;90.40
12291;DHT22;6208;48.956;9.076;2023-04-24T14:18:44;13.60;90.10
12291;DHT22;6208;48.956;9.076;2023-04-24T14:21:29;13.60;91.20
12291;DHT22;6208;48.956;9.076;2023-04-24T14:24:14;13.70;91.40
12291;DHT22;6208;48.956;9.076;2023-04-24T14:26:58;14.00;91.10
12291;DHT22;6208;48.956;9.076;2023-04-24T14:29:44;14.00;89.90
12291;DHT22;6208;48.956;9.076;2023-04-24T14:32:29;14.10;89.80
12291;DHT22;6208;48.956;9.076;2023-04-24T14:35:13;14.10;86.50
12291;DHT22;6208;48.956;9.076;2023-04-24T14:37:58;14.10;85.50
12291;DHT22;6208;48.956;9.076;2023-04-24T14:40:43;14.10;88.50
12291;DHT22;6208;48.956;9.076;2023-04-24T14:43:26;14.10;88.10
12291;DHT22;6208;48.956;9.076;2023-04-24T14:46:11;14.10;88.10
12291;DHT22;6208;48.956;9.076;2023-04-24T14:48:56;14.00;88.00
12291;DHT22;6208;48.956;9.076;2023-04-24T14:51:40;14.00;87.00
12291;DHT22;6208;48.956;9.076;2023-04-24T14:54:25;13.90;87.30
12291;DHT22;6208;48.956;9.076;2023-04-24T14:57:09;13.70;87.10
12291;DHT22;6208;48.956;9.076;2023-04-24T14:59:54;13.70;88.80
12291;DHT22;6208;48.956;9.076;2023-04-24T15:02:38;13.60;85.00
12291;DHT22;6208;48.956;9.076;2023-04-24T15:05:25;13.50;85.10
12291;DHT22;6208;48.956;9.076;2023-04-24T15:08:10;13.50;85.20
12291;DHT22;6208;48.956;9.076;2023-04-24T15:10:54;13.50;84.20
12291;DHT22;6208;48.956;9.076;2023-04-24T15:13:38;13.50;85.80
12291;DHT22;6208;48.956;9.076;2023-04-24T15:16:23;13.40;87.70
12291;DHT22;6208;48.956;9.076;2023-04-24T15:19:08;13.30;89.50
12291;DHT22;6208;48.956;9.076;2023-04-24T15:21:53;13.10;88.80
12291;DHT22;6208;48.956;9.076;2023-04-24T15:24:37;13.10;89.80
12291;DHT22;6208;48.956;9.076;2023-04-24T15:27:21;13.10;90.70
12291;DHT22;6208;48.956;9.076;2023-04-24T15:30:06;13.10;95.70
12291;DHT22;6208;48.956;9.076;2023-04-24T15:32:51;13.40;99.90
12291;DHT22;6208;48.956;9.076;2023-04-24T15:35:35;13.60;99.90
12291;DHT22;6208;48.956;9.076;2023-04-24T15:38:19;13.90;97.50
12291;DHT22;6208;48.956;9.076;2023-04-24T15:41:03;14.10;95.40
12291;DHT22;6208;48.956;9.076;2023-04-24T15:43:47;14.20;97.20
12291;DHT22;6208;48.956;9.076;2023-04-24T15:46:34;14.30;94.90
12291;DHT22;6208;48.956;9.076;2023-04-24T15:49:18;14.20;92.10
12291;DHT22;6208;48.956;9.076;2023-04-24T15:52:02;14.00;90.70
12291;DHT22;6208;48.956;9.076;2023-04-24T15:54:47;13.80;91.60
12291;DHT22;6208;48.956;9.076;2023-04-24T15:57:31;14.00;93.60
12291;DHT22;6208;48.956;9.076;2023-04-24T16:00:16;14.10;92.20
12291;DHT22;6208;48.956;9.076;2023-04-24T16:03:01;14.10;90.60
12291;DHT22;6208;48.956;9.076;2023-04-24T16:05:45;14.10;90.80
12291;DHT22;6208;48.956;9.076;2023-04-24T16:08:29;14.10;92.00
12291;DHT22;6208;48.956;9.076;2023-04-24T16:11:14;14.10;93.60
12291;DHT22;6208;48.956;9.076;2023-04-24T16:13:58;14.30;92.30
12291;DHT22;6208;48.956;9.076;2023-04-24T16:16:42;14.20;91.10
12291;DHT22;6208;48.956;9.076;2023-04-24T16:19:27;14.40;92.80
12291;DHT22;6208;48.956;9.076;2023-04-24T16:22:11;14.40;90.00
12291;DHT22;6208;48.956;9.076;2023-04-24T16:24:55;14.10;87.10
12291;DHT22;6208;48.956;9.076;2023-04-24T16:27:39;14.00;88.40
12291;DHT22;6208;48.956;9.076;2023-04-24T16:30:23;14.10;90.00
12291;DHT22;6208;48.956;9.076;2023-04-24T16:33:07;14.10;88.50
12291;DHT22;6208;48.956;9.076;2023-04-24T16:35:54;13.90;86.60
12291;DHT22;6208;48.956;9.076;2023-04-24T16:38:39;13.80;87.10
12291;DHT22;6208;48.956;9.076;2023-04-24T16:41:23;13.70;88.10
12291;DHT22;6208;48.956;9.076;2023-04-24T16:44:07;13.80;87.80
12291;DHT22;6208;48.956;9.076;2023-04-24T16:46:51;13.30;88.20
12291;DHT22;6208;48.956;9.076;2023-04-24T16:49:36;13.30;87.70
12291;DHT22;6208;48.956;9.076;2023-04-24T16:52:20;13.30;88.10
12291;DHT22;6208;48.956;9.076;2023-04-24T16:55:05;13.20;88.00
12291;DHT22;6208;48.956;9.076;2023-04-24T16:57:49;13.20;87.60
12291;DHT22;6208;48.956;9.076;2023-04-24T17:00:33;13.10;87.90
12291;DHT22;6208;48.956;9.076;2023-04-24T17:03:18;13.00;89.50
12291;DHT22;6208;48.956;9.076;2023-04-24T17:06:02;13.10;88.90
12291;DHT22;6208;48.956;9.076;2023-04-24T17:08:47;13.20;89.10
12291;DHT22;6208;48.956;9.076;2023-04-24T17:11:31;13.20;89.00
12291;DHT22;6208;48.956;9.076;2023-04-24T17:14:15;13.30;89.60
12291;DHT22;6208;48.956;9.076;2023-04-24T17:17:00;13.30;88.60
12291;DHT22;6208;48.956;9.076;2023-04-24T17:19:43;13.10;88.40
12291;DHT22;6208;48.956;9.076;2023-04-24T17:22:28;13.20;88.60
12291;DHT22;6208;48.956;9.076;2023-04-24T17:25:11;13.20;88.30
12291;DHT22;6208;48.956;9.076;2023-04-24T17:27:56;13.20;89.10
12291;DHT22;6208;48.956;9.076;2023-04-24T17:30:40;13.10;87.90
12291;DHT22;6208;48.956;9.076;2023-04-24T17:33:26;13.10;89.10
12291;DHT22;6208;48.956;9.076;2023-04-24T17:36:10;13.10;90.10
12291;DHT22;6208;48.956;9.076;2023-04-24T17:38:54;12.90;90.10
12291;DHT22;6208;48.956;9.076;2023-04-24T17:41:38;12.90;90.40
12291;DHT22;6208;48.956;9.076;2023-04-24T17:44:25;13.00;90.50
12291;DHT22;6208;48.956;9.076;2023-04-24T17:47:09;12.90;90.50